Terminal Aerodrome Forecast
Issued by NWS Quad Cities IA IL

Home | Current Version | Previous Version | Text Only | Print | Product List | Glossary Off
Versions: 1 2 3 4 5 6 7 8 9 10 11 12 13 14 15 16 17 18 19 20 21 22

000
FTUS43 KDVN 181306 AAA
TAFDBQ
TAF AMD
KDBQ 181306Z 1813/1912 19008KT P6SM BKN019
     FM181400 20007KT P6SM SCT025 PROB30 1900/1904 4SM -TSRA
      BKN035CB
     FM190400 19006KT P6SM BKN100 PROB30 1906/1910 5SM -TSRA
      BKN035CB=

USA.gov is the U.S. government's official web portal to all federal, state and local government web resources and services.